Time;durP1;ratioP1;P1;durP2;ratioP2;P2;SDS_P1;SDS_P2;PMS_P1;PMS_P2;Temp;Humidity;BMP_temperature;BMP_pressure;BME280_temperature;BME280_humidity;BME280_pressure;Samples;Min_cycle;Max_cycle;Signal;HPM_P1;HPM_P2
2023/12/26 00:02:28;;;;;;;0.10;0.10;;;;;;;;;;4967494;28;20230;-61
2023/12/26 00:04:55;;;;;;;0.20;0.20;;;;;;;;;;4966583;28;20293;-61
2023/12/26 00:07:23;;;;;;;0.40;0.13;;;;;;;;;;4966782;28;20214;-62
2023/12/26 00:09:50;;;;;;;0.10;0.10;;;;;;;;;;4967080;28;20220;-61
2023/12/26 00:12:17;;;;;;;0.10;0.10;;;;;;;;;;4965856;28;20218;-62
2023/12/26 00:14:44;;;;;;;0.10;0.10;;;;;;;;;;4966702;28;20257;-62
2023/12/26 00:17:12;;;;;;;0.20;0.20;;;;;;;;;;4966134;28;20222;-61
2023/12/26 00:19:39;;;;;;;3.50;3.17;;;;;;;;;;4966754;28;20202;-61
2023/12/26 00:22:07;;;;;;;62.07;30.80;;;;;;;;;;4966393;28;20313;-60
2023/12/26 00:24:34;;;;;;;4.13;3.17;;;;;;;;;;4966573;28;20242;-62
2023/12/26 00:27:01;;;;;;;0.10;0.10;;;;;;;;;;4966859;28;20215;-62
2023/12/26 00:29:28;;;;;;;0.77;0.20;;;;;;;;;;4963916;28;20206;-62
2023/12/26 00:31:55;;;;;;;0.10;0.10;;;;;;;;;;4958774;28;20206;-61
2023/12/26 00:34:23;;;;;;;0.00;0.00;;;;;;;;;;4967072;28;20628;-61
2023/12/26 00:36:50;;;;;;;0.00;0.00;;;;;;;;;;4966695;28;20229;-61
2023/12/26 00:39:17;;;;;;;0.10;0.10;;;;;;;;;;4965692;28;20206;-61
2023/12/26 00:41:44;;;;;;;0.10;0.10;;;;;;;;;;4965322;28;20211;-59
2023/12/26 00:44:11;;;;;;;0.10;0.10;;;;;;;;;;4966070;28;20233;-61
2023/12/26 00:46:38;;;;;;;0.10;0.10;;;;;;;;;;4986051;28;20209;-61
2023/12/26 00:49:05;;;;;;;0.10;0.10;;;;;;;;;;4983836;28;20210;-61
2023/12/26 00:51:34;;;;;;;0.10;0.10;;;;;;;;;;4974675;28;20207;-61
2023/12/26 00:54:01;;;;;;;0.10;0.10;;;;;;;;;;4966375;28;20206;-61
2023/12/26 00:56:28;;;;;;;0.00;0.00;;;;;;;;;;4966373;28;20218;-61
2023/12/26 00:58:55;;;;;;;0.10;0.10;;;;;;;;;;4966183;28;20218;-61
2023/12/26 01:01:22;;;;;;;0.00;0.00;;;;;;;;;;4966365;28;20420;-62
2023/12/26 01:03:49;;;;;;;0.10;0.10;;;;;;;;;;4966199;28;20248;-61
2023/12/26 01:06:16;;;;;;;0.00;0.00;;;;;;;;;;4966103;28;20665;-61
2023/12/26 01:08:44;;;;;;;0.10;0.10;;;;;;;;;;4966171;28;20214;-60
2023/12/26 01:11:11;;;;;;;0.10;0.07;;;;;;;;;;4965837;28;20692;-61
2023/12/26 01:13:38;;;;;;;0.40;0.20;;;;;;;;;;4965194;28;20277;-60
2023/12/26 01:16:06;;;;;;;0.10;0.10;;;;;;;;;;4966293;28;20202;-60
2023/12/26 01:18:33;;;;;;;0.10;0.10;;;;;;;;;;4966120;28;20206;-60
2023/12/26 01:21:00;;;;;;;0.00;0.00;;;;;;;;;;4966058;28;20222;-60
2023/12/26 01:23:27;;;;;;;1.70;0.10;;;;;;;;;;4965843;28;20293;-61
2023/12/26 01:25:56;;;;;;;0.10;0.10;;;;;;;;;;4965519;28;20253;-61
2023/12/26 01:28:23;;;;;;;0.10;0.10;;;;;;;;;;4965242;28;20221;-61
2023/12/26 01:30:50;;;;;;;0.10;0.10;;;;;;;;;;4965907;28;20896;-61
2023/12/26 01:33:17;;;;;;;0.10;0.10;;;;;;;;;;4963228;28;20253;-61
2023/12/26 01:35:44;;;;;;;0.10;0.10;;;;;;;;;;4965944;28;20229;-60
2023/12/26 01:38:11;;;;;;;0.20;0.20;;;;;;;;;;4965438;28;20281;-60
2023/12/26 01:40:40;;;;;;;0.10;0.10;;;;;;;;;;4965700;28;20211;-60
2023/12/26 01:43:08;;;;;;;0.10;0.10;;;;;;;;;;4969429;28;20230;-61
2023/12/26 01:45:35;;;;;;;0.10;0.10;;;;;;;;;;4969252;28;20242;-60
2023/12/26 01:48:03;;;;;;;0.00;0.00;;;;;;;;;;4969534;28;20210;-60
2023/12/26 01:50:31;;;;;;;0.00;0.00;;;;;;;;;;4969498;28;20233;-60
2023/12/26 01:52:58;;;;;;;0.20;0.20;;;;;;;;;;4969546;28;20218;-60
2023/12/26 01:55:25;;;;;;;0.20;0.20;;;;;;;;;;4972587;28;20205;-60
2023/12/26 01:57:54;;;;;;;0.23;0.10;;;;;;;;;;4951690;28;20930;-60
2023/12/26 02:00:22;;;;;;;0.10;0.10;;;;;;;;;;4962012;28;20280;-60
2023/12/26 02:02:51;;;;;;;1.03;0.10;;;;;;;;;;4968264;28;20209;-60
2023/12/26 02:05:18;;;;;;;0.87;0.30;;;;;;;;;;4968981;28;20213;-60
2023/12/26 02:07:45;;;;;;;0.57;0.30;;;;;;;;;;4968905;28;20676;-60
2023/12/26 02:10:12;;;;;;;0.50;0.30;;;;;;;;;;4968713;28;20560;-60
2023/12/26 02:12:39;;;;;;;0.20;0.20;;;;;;;;;;4968024;28;20213;-61
2023/12/26 02:15:07;;;;;;;1.27;0.27;;;;;;;;;;4969347;28;20214;-61
2023/12/26 02:17:35;;;;;;;1.67;0.30;;;;;;;;;;4968321;28;20206;-60
2023/12/26 02:20:03;;;;;;;0.77;0.30;;;;;;;;;;4969165;28;20214;-61
2023/12/26 02:22:31;;;;;;;2.03;0.30;;;;;;;;;;4968472;28;20313;-61
2023/12/26 02:24:59;;;;;;;0.53;0.30;;;;;;;;;;4968723;28;20253;-61
2023/12/26 02:27:29;;;;;;;0.20;0.20;;;;;;;;;;4975903;28;20233;-60
2023/12/26 02:33:00;;;;;;;0.47;0.40;;;;;;;;;;4964040;28;20771;-60
2023/12/26 02:35:27;;;;;;;0.53;0.50;;;;;;;;;;4968161;28;20206;-61
2023/12/26 02:37:55;;;;;;;0.30;0.30;;;;;;;;;;4967479;28;20583;-61
2023/12/26 02:40:23;;;;;;;1.47;0.40;;;;;;;;;;4968869;28;20444;-60
2023/12/26 02:42:50;;;;;;;1.50;0.40;;;;;;;;;;4968585;28;20210;-60
2023/12/26 02:45:17;;;;;;;0.67;0.50;;;;;;;;;;4968641;28;20677;-60
2023/12/26 02:47:43;;;;;;;3.57;1.03;;;;;;;;;;4971722;28;20264;-60
2023/12/26 02:50:10;;;;;;;2.03;0.70;;;;;;;;;;4968167;28;20208;-60
2023/12/26 02:52:39;;;;;;;1.53;0.47;;;;;;;;;;4967253;28;20211;-60
2023/12/26 02:55:06;;;;;;;1.80;0.70;;;;;;;;;;4968035;28;20206;-60
2023/12/26 02:57:34;;;;;;;4.80;0.87;;;;;;;;;;4967954;28;20233;-60
2023/12/26 03:00:02;;;;;;;2.53;0.60;;;;;;;;;;4967894;28;20213;-60
2023/12/26 03:02:30;;;;;;;2.50;0.77;;;;;;;;;;4967679;28;20206;-61
2023/12/26 03:04:57;;;;;;;2.20;1.00;;;;;;;;;;4967091;28;20234;-60
2023/12/26 03:07:24;;;;;;;1.47;0.80;;;;;;;;;;4967712;28;20242;-61
2023/12/26 03:09:52;;;;;;;3.00;0.70;;;;;;;;;;4968072;28;20598;-60
2023/12/26 03:12:19;;;;;;;0.67;0.40;;;;;;;;;;4967810;28;20215;-61
2023/12/26 03:14:47;;;;;;;1.03;0.67;;;;;;;;;;4967788;28;20206;-61
2023/12/26 03:17:14;;;;;;;0.70;0.70;;;;;;;;;;4967338;28;20835;-60
2023/12/26 03:19:42;;;;;;;1.13;0.50;;;;;;;;;;4966960;28;20210;-60
2023/12/26 03:22:09;;;;;;;1.20;0.60;;;;;;;;;;4967497;28;20249;-60
2023/12/26 03:24:35;;;;;;;2.47;1.07;;;;;;;;;;4967061;28;20289;-60
2023/12/26 03:27:03;;;;;;;1.33;0.57;;;;;;;;;;4967632;28;20710;-60
2023/12/26 03:29:30;;;;;;;2.30;0.70;;;;;;;;;;4967160;28;20637;-60
2023/12/26 03:31:58;;;;;;;2.57;0.80;;;;;;;;;;4967375;28;20361;-60
2023/12/26 03:34:25;;;;;;;3.03;1.00;;;;;;;;;;4960128;28;20198;-60
2023/12/26 03:36:52;;;;;;;1.17;0.60;;;;;;;;;;4967207;28;20206;-60
2023/12/26 03:39:19;;;;;;;1.80;0.90;;;;;;;;;;4967440;28;20210;-60
2023/12/26 03:41:48;;;;;;;2.53;0.80;;;;;;;;;;4967301;28;20218;-60
2023/12/26 03:44:15;;;;;;;2.30;0.83;;;;;;;;;;4967044;28;20233;-60
2023/12/26 03:46:42;;;;;;;3.90;0.90;;;;;;;;;;4970607;28;20861;-60
2023/12/26 03:49:11;;;;;;;6.00;0.77;;;;;;;;;;4966849;28;20444;-59
2023/12/26 03:51:38;;;;;;;3.03;0.73;;;;;;;;;;4967441;28;20244;-60
2023/12/26 03:54:05;;;;;;;3.93;1.10;;;;;;;;;;4966421;28;20206;-60
2023/12/26 03:56:32;;;;;;;3.10;0.70;;;;;;;;;;4967198;28;20214;-60
2023/12/26 03:58:59;;;;;;;1.73;0.60;;;;;;;;;;4966602;28;20265;-61
2023/12/26 04:01:27;;;;;;;3.30;0.90;;;;;;;;;;4967312;28;20364;-59
2023/12/26 04:03:54;;;;;;;4.00;1.00;;;;;;;;;;4967164;28;20232;-60
2023/12/26 04:06:23;;;;;;;3.53;0.80;;;;;;;;;;4966584;28;20206;-60
2023/12/26 04:08:50;;;;;;;2.97;0.80;;;;;;;;;;4966392;28;20649;-60
2023/12/26 04:11:17;;;;;;;3.43;1.23;;;;;;;;;;4966359;28;20236;-60
2023/12/26 04:13:44;;;;;;;3.37;1.27;;;;;;;;;;4967567;28;20213;-59
2023/12/26 04:16:11;;;;;;;5.87;1.00;;;;;;;;;;4967091;28;20723;-60
2023/12/26 04:18:38;;;;;;;2.33;0.90;;;;;;;;;;4967549;28;20217;-60
2023/12/26 04:21:05;;;;;;;3.77;1.37;;;;;;;;;;4967240;28;20226;-59
2023/12/26 04:23:33;;;;;;;2.03;1.33;;;;;;;;;;4967277;28;21000;-60
2023/12/26 04:26:00;;;;;;;3.43;0.93;;;;;;;;;;4966409;28;20210;-60
2023/12/26 04:28:27;;;;;;;3.30;1.00;;;;;;;;;;4967422;28;20436;-60
2023/12/26 04:30:54;;;;;;;6.77;1.20;;;;;;;;;;4966690;28;20210;-60
2023/12/26 04:33:21;;;;;;;1.53;0.97;;;;;;;;;;4966052;28;20257;-60
2023/12/26 04:35:49;;;;;;;5.90;2.27;;;;;;;;;;4966841;28;20264;-60
2023/12/26 04:38:16;;;;;;;5.40;1.63;;;;;;;;;;4967025;28;20740;-60
2023/12/26 04:40:44;;;;;;;2.57;0.97;;;;;;;;;;4966733;28;20211;-60
2023/12/26 04:43:11;;;;;;;4.00;1.37;;;;;;;;;;4966659;28;20779;-60
2023/12/26 04:45:39;;;;;;;4.20;0.93;;;;;;;;;;4966671;28;20708;-60
2023/12/26 04:48:07;;;;;;;3.60;1.00;;;;;;;;;;4967134;28;20241;-60
2023/12/26 04:50:34;;;;;;;4.43;1.33;;;;;;;;;;4966735;28;20207;-60
2023/12/26 04:53:01;;;;;;;3.00;1.10;;;;;;;;;;4966982;28;20796;-60
2023/12/26 04:55:28;;;;;;;4.27;1.30;;;;;;;;;;4965703;28;20206;-60
2023/12/26 04:57:57;;;;;;;2.70;1.23;;;;;;;;;;4967224;28;20210;-62
2023/12/26 05:00:24;;;;;;;5.00;1.40;;;;;;;;;;4966828;28;20636;-60
2023/12/26 05:02:51;;;;;;;2.40;0.90;;;;;;;;;;4956694;28;20211;-60
2023/12/26 05:05:18;;;;;;;4.80;1.20;;;;;;;;;;4949815;28;20752;-60
2023/12/26 05:07:45;;;;;;;2.80;1.10;;;;;;;;;;4967000;28;20206;-60
2023/12/26 05:10:12;;;;;;;4.87;1.30;;;;;;;;;;4960898;28;20214;-60
2023/12/26 05:12:39;;;;;;;2.87;1.07;;;;;;;;;;4963340;28;20776;-61
2023/12/26 05:15:08;;;;;;;1.70;1.00;;;;;;;;;;4962609;28;20597;-60
2023/12/26 05:17:35;;;;;;;4.07;1.20;;;;;;;;;;4968970;28;20216;-60
2023/12/26 05:20:02;;;;;;;2.00;0.93;;;;;;;;;;4966403;28;20743;-60
2023/12/26 05:22:29;;;;;;;4.33;1.17;;;;;;;;;;4962457;28;20230;-61
2023/12/26 05:24:56;;;;;;;1.67;1.00;;;;;;;;;;4969182;28;20724;-61
2023/12/26 05:27:23;;;;;;;3.93;1.20;;;;;;;;;;4969573;28;20561;-61
2023/12/26 05:29:50;;;;;;;1.77;1.20;;;;;;;;;;4953700;28;20412;-61
2023/12/26 05:32:18;;;;;;;2.43;1.10;;;;;;;;;;4969438;28;20198;-60
2023/12/26 05:34:48;;;;;;;4.17;0.90;;;;;;;;;;4969400;28;20206;-60
2023/12/26 05:37:15;;;;;;;3.33;0.90;;;;;;;;;;4965476;28;20317;-60
2023/12/26 05:39:44;;;;;;;2.27;0.93;;;;;;;;;;4969469;28;20582;-60
2023/12/26 05:42:11;;;;;;;2.40;0.90;;;;;;;;;;4964963;28;20912;-61
2023/12/26 05:44:38;;;;;;;3.37;0.90;;;;;;;;;;4969085;28;20304;-60
2023/12/26 05:47:05;;;;;;;2.37;0.83;;;;;;;;;;4969174;28;20692;-61
2023/12/26 05:49:33;;;;;;;5.00;1.10;;;;;;;;;;4969238;28;20206;-60
2023/12/26 05:52:00;;;;;;;2.20;0.87;;;;;;;;;;4969040;28;20206;-60
2023/12/26 05:54:27;;;;;;;7.80;1.00;;;;;;;;;;4968861;28;20206;-61
2023/12/26 05:56:54;;;;;;;1.87;0.83;;;;;;;;;;4969266;28;20210;-60
2023/12/26 05:59:21;;;;;;;2.10;0.60;;;;;;;;;;4969051;28;20210;-60
2023/12/26 06:01:48;;;;;;;3.63;1.00;;;;;;;;;;4968997;28;20214;-60
2023/12/26 06:04:15;;;;;;;2.90;1.50;;;;;;;;;;4972823;28;20742;-60
2023/12/26 06:06:44;;;;;;;1.40;0.90;;;;;;;;;;4976669;28;20265;-60
2023/12/26 06:09:11;;;;;;;2.43;0.97;;;;;;;;;;4968631;28;20199;-60
2023/12/26 06:11:38;;;;;;;2.03;0.90;;;;;;;;;;4969095;28;20225;-60
2023/12/26 06:14:05;;;;;;;2.10;0.80;;;;;;;;;;4968504;28;20587;-60
2023/12/26 06:16:32;;;;;;;3.00;0.90;;;;;;;;;;4968258;28;20299;-60
2023/12/26 06:18:59;;;;;;;2.50;1.20;;;;;;;;;;4967767;28;20214;-60
2023/12/26 06:21:26;;;;;;;1.43;0.60;;;;;;;;;;4968354;28;20372;-60
2023/12/26 06:23:54;;;;;;;2.70;0.90;;;;;;;;;;4968644;28;20234;-60
2023/12/26 06:26:20;;;;;;;4.23;1.03;;;;;;;;;;4967976;28;20253;-60
2023/12/26 06:28:47;;;;;;;4.43;1.33;;;;;;;;;;4966815;28;20202;-60
2023/12/26 06:31:15;;;;;;;1.30;1.00;;;;;;;;;;4968021;28;20210;-60
2023/12/26 06:33:42;;;;;;;4.57;1.00;;;;;;;;;;4967970;28;20210;-60
2023/12/26 06:36:09;;;;;;;3.23;1.03;;;;;;;;;;4967982;28;20202;-60
2023/12/26 06:38:36;;;;;;;3.30;1.00;;;;;;;;;;4967855;28;20210;-61
2023/12/26 06:41:05;;;;;;;2.13;1.00;;;;;;;;;;4967844;28;20222;-61
2023/12/26 06:43:32;;;;;;;2.33;0.87;;;;;;;;;;4968123;28;20314;-60
2023/12/26 06:45:59;;;;;;;4.80;1.03;;;;;;;;;;4968291;28;20234;-60
2023/12/26 06:48:26;;;;;;;3.93;1.17;;;;;;;;;;4967819;28;20206;-59
2023/12/26 06:50:52;;;;;;;3.30;1.30;;;;;;;;;;4967989;28;20210;-60
2023/12/26 06:53:19;;;;;;;5.03;0.90;;;;;;;;;;4971070;28;20730;-61
2023/12/26 06:55:46;;;;;;;5.07;1.50;;;;;;;;;;4967892;28;20209;-61
2023/12/26 06:58:14;;;;;;;2.47;1.53;;;;;;;;;;4967489;28;20206;-62
2023/12/26 07:00:41;;;;;;;2.63;1.17;;;;;;;;;;4967707;28;20253;-61
2023/12/26 07:03:08;;;;;;;2.13;1.30;;;;;;;;;;4967692;28;20214;-61
2023/12/26 07:05:35;;;;;;;2.70;0.87;;;;;;;;;;4966966;28;20234;-61
2023/12/26 07:08:02;;;;;;;1.93;1.20;;;;;;;;;;4967062;28;20210;-61
2023/12/26 07:10:29;;;;;;;5.17;0.90;;;;;;;;;;4967443;28;20310;-61
2023/12/26 07:12:57;;;;;;;2.80;1.20;;;;;;;;;;4967264;28;20739;-61
2023/12/26 07:15:25;;;;;;;2.17;1.00;;;;;;;;;;4967908;28;20214;-62
2023/12/26 07:17:52;;;;;;;2.00;0.80;;;;;;;;;;4967468;28;20385;-61
2023/12/26 07:20:19;;;;;;;1.53;0.83;;;;;;;;;;4967018;28;20214;-61
2023/12/26 07:22:46;;;;;;;1.23;0.70;;;;;;;;;;4967075;28;20481;-62
2023/12/26 07:25:14;;;;;;;0.93;0.70;;;;;;;;;;4967057;28;20238;-61
2023/12/26 07:27:41;;;;;;;1.33;0.93;;;;;;;;;;4967410;28;20210;-61
2023/12/26 07:30:08;;;;;;;1.10;0.67;;;;;;;;;;4967667;28;20245;-61
2023/12/26 07:32:36;;;;;;;1.87;0.90;;;;;;;;;;4967229;28;20206;-63
2023/12/26 07:35:04;;;;;;;0.70;0.70;;;;;;;;;;4966470;28;20248;-59
2023/12/26 07:37:32;;;;;;;3.60;0.77;;;;;;;;;;4966763;28;20234;-59
2023/12/26 07:39:59;;;;;;;0.97;0.60;;;;;;;;;;4966219;28;20281;-60
2023/12/26 07:42:26;;;;;;;0.70;0.70;;;;;;;;;;4966682;28;20293;-59
2023/12/26 07:44:53;;;;;;;1.47;0.77;;;;;;;;;;4966292;28;20337;-60
2023/12/26 07:47:20;;;;;;;1.90;0.80;;;;;;;;;;4966345;28;20206;-61
2023/12/26 07:49:49;;;;;;;1.40;1.00;;;;;;;;;;4966741;28;20210;-61
2023/12/26 07:52:16;;;;;;;2.83;0.80;;;;;;;;;;4966889;28;20218;-62
2023/12/26 07:54:43;;;;;;;1.90;0.77;;;;;;;;;;4966268;28;20241;-59
2023/12/26 07:57:11;;;;;;;0.53;0.53;;;;;;;;;;4962740;28;20214;-60
2023/12/26 07:59:38;;;;;;;0.93;0.70;;;;;;;;;;4966482;28;20206;-60
2023/12/26 08:02:05;;;;;;;1.13;0.70;;;;;;;;;;4966543;28;20305;-60
2023/12/26 08:04:32;;;;;;;3.90;0.70;;;;;;;;;;4963083;28;20222;-61
2023/12/26 08:07:01;;;;;;;3.87;0.77;;;;;;;;;;4966540;28;20672;-59
2023/12/26 08:09:28;;;;;;;1.67;1.07;;;;;;;;;;4963906;28;20209;-60
2023/12/26 08:11:55;;;;;;;1.80;0.93;;;;;;;;;;4966331;28;20206;-60
2023/12/26 08:14:22;;;;;;;2.53;0.90;;;;;;;;;;4966591;28;20222;-60
2023/12/26 08:16:49;;;;;;;0.60;0.60;;;;;;;;;;4965842;28;20202;-60
2023/12/26 08:19:16;;;;;;;2.83;0.70;;;;;;;;;;4966196;28;20215;-60
2023/12/26 08:21:43;;;;;;;3.03;0.60;;;;;;;;;;4965971;28;20236;-61
2023/12/26 08:24:11;;;;;;;1.20;0.77;;;;;;;;;;4965246;28;20238;-61
2023/12/26 08:26:38;;;;;;;4.13;0.70;;;;;;;;;;4966020;28;20233;-60
2023/12/26 08:29:05;;;;;;;2.60;0.60;;;;;;;;;;4965982;28;20218;-60
2023/12/26 08:31:32;;;;;;;3.63;0.80;;;;;;;;;;4967091;28;20217;-62
2023/12/26 08:34:00;;;;;;;4.30;0.63;;;;;;;;;;4977233;28;20230;-60
2023/12/26 08:36:27;;;;;;;0.83;0.57;;;;;;;;;;4974482;28;20197;-60
2023/12/26 08:38:54;;;;;;;1.17;0.77;;;;;;;;;;4956281;28;20266;-60
2023/12/26 08:41:22;;;;;;;2.10;0.40;;;;;;;;;;4964110;28;20264;-60
2023/12/26 08:43:49;;;;;;;2.17;0.70;;;;;;;;;;4982349;28;20205;-60
2023/12/26 08:46:16;;;;;;;1.13;0.70;;;;;;;;;;4974468;28;20231;-60
2023/12/26 08:48:43;;;;;;;1.03;0.57;;;;;;;;;;4956994;28;20206;-60
2023/12/26 08:51:10;;;;;;;5.00;0.57;;;;;;;;;;4964262;28;20218;-60
2023/12/26 08:53:37;;;;;;;1.80;0.73;;;;;;;;;;4965823;28;20672;-60
2023/12/26 08:56:04;;;;;;;1.57;0.60;;;;;;;;;;4965611;28;20194;-60
2023/12/26 08:58:33;;;;;;;1.23;0.50;;;;;;;;;;4965224;28;20210;-60
2023/12/26 09:01:00;;;;;;;2.77;0.57;;;;;;;;;;4965511;28;20213;-60
2023/12/26 09:03:27;;;;;;;0.40;0.40;;;;;;;;;;4965505;28;20344;-59
2023/12/26 09:05:54;;;;;;;1.07;0.60;;;;;;;;;;4965492;28;20226;-60
2023/12/26 09:08:21;;;;;;;0.50;0.50;;;;;;;;;;4965189;28;20211;-58
2023/12/26 09:10:49;;;;;;;0.67;0.60;;;;;;;;;;4965396;28;20202;-60
2023/12/26 09:13:20;;;;;;;1.70;0.60;;;;;;;;;;4965586;28;20585;-59
2023/12/26 09:15:49;;;;;;;1.90;0.60;;;;;;;;;;4965741;28;20198;-60
2023/12/26 09:18:16;;;;;;;2.33;0.60;;;;;;;;;;4965566;28;20317;-61
2023/12/26 09:20:43;;;;;;;0.73;0.50;;;;;;;;;;4965000;28;20313;-64
2023/12/26 09:23:12;;;;;;;2.80;0.50;;;;;;;;;;4965486;28;20732;-62
2023/12/26 09:25:39;;;;;;;1.80;0.70;;;;;;;;;;4975377;28;20321;-59
2023/12/26 09:28:07;;;;;;;1.03;0.67;;;;;;;;;;4964798;28;20206;-61
2023/12/26 09:30:34;;;;;;;2.63;0.80;;;;;;;;;;4964827;28;20280;-60
2023/12/26 09:33:02;;;;;;;0.70;0.70;;;;;;;;;;4965069;28;20719;-59
2023/12/26 09:35:29;;;;;;;0.60;0.60;;;;;;;;;;4964532;28;20234;-60
2023/12/26 09:37:56;;;;;;;3.57;0.50;;;;;;;;;;4965276;28;20210;-60
2023/12/26 09:40:23;;;;;;;41.07;8.63;;;;;;;;;;4965021;28;20264;-60
2023/12/26 09:42:51;;;;;;;36.97;6.27;;;;;;;;;;4964979;28;20800;-60
2023/12/26 09:45:19;;;;;;;161.17;26.93;;;;;;;;;;4957235;28;20318;-60
2023/12/26 09:47:46;;;;;;;47.43;9.67;;;;;;;;;;4961710;28;20214;-63
2023/12/26 09:50:14;;;;;;;21.83;6.13;;;;;;;;;;4964966;28;20711;-60
2023/12/26 09:52:44;;;;;;;49.97;8.63;;;;;;;;;;4964428;28;20247;-65
2023/12/26 09:55:12;;;;;;;15.97;5.27;;;;;;;;;;4964923;28;20592;-62
2023/12/26 09:57:40;;;;;;;27.33;4.90;;;;;;;;;;4965107;28;20218;-62
2023/12/26 10:00:07;;;;;;;7.20;2.50;;;;;;;;;;4961649;28;20218;-61
2023/12/26 10:02:34;;;;;;;13.83;3.43;;;;;;;;;;4962239;28;20270;-63
2023/12/26 10:05:01;;;;;;;7.37;2.37;;;;;;;;;;4959429;28;20206;-63
2023/12/26 10:07:30;;;;;;;4.23;1.43;;;;;;;;;;4967028;28;20284;-59
2023/12/26 10:09:57;;;;;;;10.03;2.33;;;;;;;;;;4968398;28;20222;-62
2023/12/26 10:12:29;;;;;;;2.10;1.40;;;;;;;;;;4960594;28;20198;-60
2023/12/26 10:14:58;;;;;;;6.13;1.30;;;;;;;;;;4965773;28;20297;-61
2023/12/26 10:17:25;;;;;;;1.10;0.83;;;;;;;;;;4968131;28;20214;-61
2023/12/26 10:19:57;;;;;;;2.97;1.13;;;;;;;;;;4967680;28;20215;-60
2023/12/26 10:22:24;;;;;;;1.03;0.93;;;;;;;;;;4967733;28;20230;-59
2023/12/26 10:24:55;;;;;;;2.00;1.03;;;;;;;;;;4967727;28;20269;-60
2023/12/26 10:27:22;;;;;;;1.13;0.40;;;;;;;;;;4967242;28;20229;-60
2023/12/26 10:29:51;;;;;;;0.30;0.30;;;;;;;;;;4967225;28;20688;-62
2023/12/26 10:32:19;;;;;;;1.50;0.30;;;;;;;;;;4967269;28;20289;-60
2023/12/26 10:34:46;;;;;;;0.67;0.67;;;;;;;;;;4967653;28;20206;-64
2023/12/26 10:37:13;;;;;;;0.37;0.37;;;;;;;;;;4967245;28;20262;-60
2023/12/26 10:39:42;;;;;;;1.10;0.40;;;;;;;;;;4966865;28;20504;-63
2023/12/26 10:42:11;;;;;;;0.30;0.30;;;;;;;;;;4967466;28;20292;-62
2023/12/26 10:44:38;;;;;;;0.37;0.30;;;;;;;;;;4967323;28;20217;-60
2023/12/26 10:47:06;;;;;;;0.30;0.30;;;;;;;;;;4967347;28;20234;-61
2023/12/26 10:49:33;;;;;;;1.40;0.20;;;;;;;;;;4967328;28;20234;-59
2023/12/26 10:52:01;;;;;;;1.13;0.30;;;;;;;;;;4967410;28;20210;-63
2023/12/26 10:54:28;;;;;;;1.17;0.20;;;;;;;;;;4966595;28;20214;-60
2023/12/26 10:56:56;;;;;;;0.33;0.33;;;;;;;;;;4967338;28;20210;-60
2023/12/26 10:59:25;;;;;;;0.37;0.30;;;;;;;;;;4967119;28;20432;-60
2023/12/26 11:01:51;;;;;;;3.40;1.10;;;;;;;;;;4967275;28;20206;-63
2023/12/26 11:04:17;;;;;;;0.83;0.67;;;;;;;;;;4966670;28;20967;-64
2023/12/26 11:06:44;;;;;;;2.13;0.83;;;;;;;;;;4967242;28;20239;-65
2023/12/26 11:09:10;;;;;;;0.83;0.67;;;;;;;;;;4967097;28;20710;-60
2023/12/26 11:11:37;;;;;;;0.87;0.50;;;;;;;;;;4966774;28;20218;-60
2023/12/26 11:14:05;;;;;;;0.37;0.37;;;;;;;;;;4965653;28;20205;-58
2023/12/26 11:16:34;;;;;;;0.40;0.40;;;;;;;;;;4967063;28;20280;-59
2023/12/26 11:19:00;;;;;;;0.87;0.30;;;;;;;;;;4966319;28;20214;-58
2023/12/26 11:21:28;;;;;;;0.43;0.30;;;;;;;;;;4947801;29;20282;-75
2023/12/26 11:23:54;;;;;;;0.30;0.30;;;;;;;;;;4965105;28;20235;-59
2023/12/26 11:26:20;;;;;;;0.70;0.30;;;;;;;;;;4966576;28;20230;-59
2023/12/26 11:28:48;;;;;;;2.03;0.30;;;;;;;;;;4966301;28;20639;-67
2023/12/26 11:31:16;;;;;;;0.30;0.30;;;;;;;;;;4966023;28;20215;-57
2023/12/26 11:33:43;;;;;;;1.03;0.30;;;;;;;;;;4966049;28;20743;-58
2023/12/26 11:36:10;;;;;;;2.43;0.63;;;;;;;;;;4965941;28;20209;-58
2023/12/26 11:38:37;;;;;;;1.23;0.47;;;;;;;;;;4966251;28;20210;-61
2023/12/26 11:41:04;;;;;;;1.40;0.40;;;;;;;;;;4965919;28;20237;-65
2023/12/26 11:43:31;;;;;;;0.30;0.30;;;;;;;;;;4966277;28;20564;-64
2023/12/26 11:45:57;;;;;;;0.33;0.33;;;;;;;;;;4965949;28;20230;-61
2023/12/26 11:48:23;;;;;;;0.30;0.30;;;;;;;;;;4965920;28;20297;-61
2023/12/26 11:50:51;;;;;;;0.33;0.33;;;;;;;;;;4966053;28;20202;-64
2023/12/26 11:53:18;;;;;;;0.50;0.50;;;;;;;;;;4965524;28;20716;-72
2023/12/26 11:55:44;;;;;;;0.40;0.40;;;;;;;;;;4965655;28;20209;-65
2023/12/26 11:58:11;;;;;;;158.70;89.13;;;;;;;;;;4966265;28;20302;-69
2023/12/26 12:00:37;;;;;;;6.30;4.10;;;;;;;;;;4965946;28;20206;-70
2023/12/26 12:03:03;;;;;;;146.80;72.87;;;;;;;;;;4965625;28;20598;-70
2023/12/26 12:05:30;;;;;;;2.90;2.70;;;;;;;;;;4965456;28;20213;-80
2023/12/26 12:08:11;;;;;;;3.43;3.13;;;;;;;;;;4965778;28;20230;-70
2023/12/26 12:11:00;;;;;;;4.60;0.40;;;;;;;;;;4965066;28;20632;-65
2023/12/26 12:13:26;;;;;;;0.40;0.40;;;;;;;;;;4964592;28;20230;-64
2023/12/26 12:15:52;;;;;;;0.30;0.30;;;;;;;;;;4965117;28;20199;-66
2023/12/26 12:18:20;;;;;;;0.40;0.40;;;;;;;;;;4964838;28;20748;-67
2023/12/26 12:20:49;;;;;;;0.20;0.20;;;;;;;;;;4966561;28;20230;-66
2023/12/26 12:23:15;;;;;;;1.23;1.20;;;;;;;;;;4964420;28;20237;-68
2023/12/26 12:25:43;;;;;;;14.07;9.63;;;;;;;;;;4963625;28;20202;-68
2023/12/26 12:28:10;;;;;;;0.33;0.33;;;;;;;;;;4966027;28;20597;-67
2023/12/26 12:30:36;;;;;;;34.67;5.80;;;;;;;;;;4966029;28;20579;-66
2023/12/26 12:33:17;;;;;;;8.50;1.67;;;;;;;;;;4965794;28;20453;-67
2023/12/26 12:35:47;;;;;;;0.63;0.50;;;;;;;;;;4963767;28;20268;-66
2023/12/26 12:38:13;;;;;;;0.67;0.30;;;;;;;;;;4965557;28;20202;-68
2023/12/26 12:40:40;;;;;;;0.40;0.20;;;;;;;;;;4965866;28;20265;-71
2023/12/26 12:43:09;;;;;;;2.43;0.30;;;;;;;;;;4963932;28;20263;-70
2023/12/26 12:45:35;;;;;;;0.87;0.83;;;;;;;;;;4959646;28;20685;-67
2023/12/26 12:48:03;;;;;;;4.10;3.80;;;;;;;;;;4959070;28;20599;-65
2023/12/26 12:50:30;;;;;;;9.90;7.77;;;;;;;;;;4956061;28;20623;-64
2023/12/26 12:52:56;;;;;;;47.30;24.70;;;;;;;;;;4953666;28;20631;-66
2023/12/26 12:55:23;;;;;;;7.20;5.80;;;;;;;;;;4958418;28;20672;-63
2023/12/26 12:57:49;;;;;;;2.50;2.33;;;;;;;;;;4958831;28;20199;-64
2023/12/26 13:00:17;;;;;;;3.60;1.93;;;;;;;;;;4962479;28;20381;-67
2023/12/26 13:02:44;;;;;;;2.60;0.80;;;;;;;;;;4963423;28;20691;-63
2023/12/26 13:05:10;;;;;;;0.50;0.50;;;;;;;;;;4962185;28;20244;-64
2023/12/26 13:07:36;;;;;;;0.40;0.40;;;;;;;;;;4962422;28;20245;-63
2023/12/26 13:10:03;;;;;;;0.20;0.20;;;;;;;;;;4961725;28;20729;-64
2023/12/26 13:12:29;;;;;;;0.40;0.40;;;;;;;;;;4961258;28;20229;-63
2023/12/26 13:14:55;;;;;;;0.97;0.90;;;;;;;;;;4960924;28;20206;-66
2023/12/26 13:17:23;;;;;;;0.60;0.60;;;;;;;;;;4961920;28;20198;-64
2023/12/26 13:19:49;;;;;;;3.30;0.50;;;;;;;;;;4961581;28;20467;-65
2023/12/26 13:22:16;;;;;;;0.80;0.80;;;;;;;;;;4963981;28;20232;-63
2023/12/26 13:24:49;;;;;;;1.40;0.40;;;;;;;;;;4963825;28;20242;-64
2023/12/26 13:27:21;;;;;;;0.50;0.50;;;;;;;;;;4963715;28;20336;-64
2023/12/26 13:29:47;;;;;;;0.53;0.53;;;;;;;;;;4963859;28;20202;-62
2023/12/26 13:32:14;;;;;;;0.63;0.63;;;;;;;;;;4964655;28;20286;-64
2023/12/26 13:34:41;;;;;;;1.70;0.60;;;;;;;;;;4965391;28;20210;-63
2023/12/26 13:37:07;;;;;;;0.80;0.57;;;;;;;;;;4965184;28;20206;-63
2023/12/26 13:39:34;;;;;;;2.53;0.40;;;;;;;;;;4968771;28;20210;-65
2023/12/26 13:42:00;;;;;;;0.30;0.30;;;;;;;;;;4967724;28;20540;-65
2023/12/26 13:44:26;;;;;;;0.47;0.40;;;;;;;;;;4968180;28;20226;-65
2023/12/26 13:46:53;;;;;;;0.80;0.70;;;;;;;;;;4963969;28;20234;-65
2023/12/26 13:49:20;;;;;;;0.60;0.60;;;;;;;;;;4966465;28;20857;-65
2023/12/26 13:51:47;;;;;;;0.60;0.60;;;;;;;;;;4968042;28;20198;-66
2023/12/26 13:54:14;;;;;;;1.20;1.10;;;;;;;;;;4967911;28;20274;-66
2023/12/26 13:56:40;;;;;;;2.70;1.77;;;;;;;;;;4968216;28;20241;-66
2023/12/26 13:59:07;;;;;;;1.27;1.23;;;;;;;;;;4968671;28;20608;-66
2023/12/26 14:01:34;;;;;;;1.43;0.87;;;;;;;;;;4967874;28;20206;-68
2023/12/26 14:04:02;;;;;;;0.50;0.40;;;;;;;;;;4967723;28;20889;-63
2023/12/26 14:06:29;;;;;;;1.00;1.00;;;;;;;;;;4965262;28;20237;-65
2023/12/26 14:08:57;;;;;;;1.47;1.23;;;;;;;;;;4966431;28;20226;-68
2023/12/26 14:11:26;;;;;;;9.77;3.40;;;;;;;;;;4966982;28;20268;-66
2023/12/26 14:13:53;;;;;;;54.47;27.67;;;;;;;;;;4965111;28;20925;-68
2023/12/26 14:16:22;;;;;;;854.83;562.60;;;;;;;;;;4965059;28;20210;-63
2023/12/26 14:18:49;;;;;;;22.37;12.37;;;;;;;;;;4964133;28;20217;-63
2023/12/26 14:21:16;;;;;;;5.77;3.10;;;;;;;;;;4963998;28;20230;-63
2023/12/26 14:23:43;;;;;;;3.33;1.10;;;;;;;;;;4963225;28;20238;-61
2023/12/26 14:26:12;;;;;;;1.70;1.23;;;;;;;;;;4962680;28;20217;-61
2023/12/26 14:28:39;;;;;;;0.90;0.80;;;;;;;;;;4962920;28;20210;-66
2023/12/26 14:31:06;;;;;;;1.83;0.40;;;;;;;;;;4965034;28;20206;-68
2023/12/26 14:33:33;;;;;;;1.43;0.60;;;;;;;;;;4963617;28;20639;-67
2023/12/26 14:36:00;;;;;;;0.60;0.30;;;;;;;;;;4965238;28;20202;-63
2023/12/26 14:38:27;;;;;;;1.40;0.50;;;;;;;;;;4964994;28;20199;-64
2023/12/26 14:40:56;;;;;;;0.30;0.30;;;;;;;;;;4967960;28;20214;-65
2023/12/26 14:43:24;;;;;;;1.97;0.40;;;;;;;;;;4966629;28;20234;-68
2023/12/26 14:45:51;;;;;;;0.83;0.40;;;;;;;;;;4965099;28;20210;-69